Time;durP1;ratioP1;P1;durP2;ratioP2;P2;SDS_P1;SDS_P2;PMS_P1;PMS_P2;Temp;Humidity;BMP_temperature;BMP_pressure;BME280_temperature;BME280_humidity;BME280_pressure;Samples;Min_cycle;Max_cycle;Signal;HPM_P1;HPM_P2
2021/12/22 00:00:23;;;;;;;37.60;19.87;;;;;;;;;;5055435;28;20187;-82
2021/12/22 00:02:50;;;;;;;33.57;17.10;;;-2.80;99.90;;;;;;5073579;28;20179;-81
2021/12/22 00:05:25;;;;;;;29.03;14.67;;;-2.90;99.90;;;;;;5055472;28;20183;-82
2021/12/22 00:07:52;;;;;;;38.57;18.90;;;-2.80;99.90;;;;;;5073092;28;20579;-82
2021/12/22 00:10:19;;;;;;;25.40;13.90;;;-1.10;99.90;;;;;;5055736;28;20267;-82
2021/12/22 00:12:46;;;;;;;32.23;15.80;;;-0.40;99.90;;;;;;5073625;28;20174;-82
2021/12/22 00:15:12;;;;;;;31.90;17.70;;;-2.80;99.90;;;;;;5038840;28;20181;-83
2021/12/22 00:17:37;;;;;;;28.50;14.10;;;-1.30;99.90;;;;;;5073535;28;20185;-82
2021/12/22 00:20:06;;;;;;;31.13;17.20;;;-1.90;99.90;;;;;;5055624;28;20228;-82
2021/12/22 00:22:31;;;;;;;29.40;16.60;;;-2.80;99.90;;;;;;5055464;28;20189;-82
2021/12/22 00:24:57;;;;;;;24.40;13.47;;;-2.40;99.90;;;;;;5072976;28;20695;-82
2021/12/22 00:27:23;;;;;;;32.03;15.20;;;-2.90;99.90;;;;;;5055405;28;20192;-82
2021/12/22 00:29:51;;;;;;;27.23;14.20;;;-1.80;99.90;;;;;;5055715;28;20260;-81
2021/12/22 00:32:17;;;;;;;26.57;12.93;;;-2.90;99.90;;;;;;5073120;28;20220;-82
2021/12/22 00:34:51;;;;;;;27.60;12.10;;;-1.70;99.90;;;;;;5073357;28;20222;-82
2021/12/22 00:37:25;;;;;;;24.97;12.30;;;-2.40;99.90;;;;;;5073171;28;20655;-82
2021/12/22 00:39:52;;;;;;;30.27;14.53;;;-2.70;99.90;;;;;;5055257;28;20180;-82
2021/12/22 00:42:19;;;;;;;29.43;13.07;;;-2.40;99.90;;;;;;5055615;28;20176;-82
2021/12/22 00:44:50;;;;;;;27.10;13.50;;;-2.90;99.90;;;;;;5073065;28;20225;-82
2021/12/22 00:47:23;;;;;;;26.57;13.40;;;-1.20;99.90;;;;;;5072939;28;20169;-82
2021/12/22 00:49:49;;;;;;;20.47;11.87;;;-3.00;99.90;;;;;;5073157;28;20155;-82
2021/12/22 00:52:15;;;;;;;30.33;13.37;;;-3.00;99.90;;;;;;5073129;28;20561;-83
2021/12/22 00:54:41;;;;;;;32.47;14.67;;;-3.00;99.90;;;;;;5056615;28;20215;-82
2021/12/22 00:57:09;;;;;;;32.53;16.17;;;-2.40;99.90;;;;;;5059329;28;20218;-82
2021/12/22 00:59:36;;;;;;;29.53;14.50;;;-3.10;99.90;;;;;;5042879;28;20613;-82
2021/12/22 01:02:05;;;;;;;36.70;15.93;;;-2.60;99.90;;;;;;5077007;28;20216;-82
2021/12/22 01:04:31;;;;;;;33.10;16.30;;;-3.10;99.90;;;;;;5058690;28;20229;-82
2021/12/22 01:06:56;;;;;;;26.20;13.03;;;-3.10;99.90;;;;;;5058795;28;20222;-82
2021/12/22 01:09:22;;;;;;;25.67;13.93;;;-2.30;99.90;;;;;;5058870;28;20182;-82
2021/12/22 01:11:49;;;;;;;29.07;16.57;;;-1.00;99.90;;;;;;5059041;28;20180;-82
2021/12/22 01:14:15;;;;;;;26.73;13.67;;;-2.70;99.90;;;;;;5059241;28;20209;-82
2021/12/22 01:16:46;;;;;;;29.23;14.60;;;-1.90;99.90;;;;;;5076415;28;20256;-82
2021/12/22 01:19:15;;;;;;;30.23;14.10;;;-3.10;99.90;;;;;;5059378;28;20194;-82
2021/12/22 01:21:49;;;;;;;35.43;15.37;;;-2.50;99.90;;;;;;5042511;28;20242;-82
2021/12/22 01:24:49;;;;;;;30.50;13.60;;;-1.60;99.90;;;;;;5043174;28;20208;-83
2021/12/22 01:27:09;;;;;;;31.57;15.10;;;-3.20;99.90;;;;;;5072492;28;20189;-83
2021/12/22 01:29:38;;;;;;;31.80;14.17;;;-3.20;99.90;;;;;;5076297;28;20177;-82
2021/12/22 01:32:04;;;;;;;26.83;14.80;;;-2.80;99.90;;;;;;5054966;28;20262;-83
2021/12/22 01:34:30;;;;;;;28.63;14.80;;;-3.20;99.90;;;;;;5055026;28;20205;-83
2021/12/22 01:36:56;;;;;;;39.40;17.17;;;-3.20;99.90;;;;;;5038466;28;20184;-83
2021/12/22 01:39:23;;;;;;;31.23;15.30;;;-0.70;99.90;;;;;;5038322;28;20187;-83
2021/12/22 01:41:49;;;;;;;29.80;15.73;;;-1.20;99.90;;;;;;5054986;28;20275;-83
2021/12/22 01:44:48;;;;;;;30.80;14.50;;;-3.10;99.90;;;;;;5054837;28;20208;-83
2021/12/22 01:50:09;;;;;;;28.40;14.30;;;-2.30;99.90;;;;;;5046896;28;20184;-82
2021/12/22 01:52:35;;;;;;;28.67;14.17;;;-1.30;99.90;;;;;;5055923;28;20180;-82
2021/12/22 01:55:13;;;;;;;30.13;16.00;;;-3.40;99.90;;;;;;5055855;28;20212;-82
2021/12/22 01:57:48;;;;;;;28.10;14.87;;;-3.30;99.90;;;;;;5055841;28;20157;-82
2021/12/22 02:00:16;;;;;;;31.37;14.67;;;-3.30;99.90;;;;;;5054593;28;20207;-82
2021/12/22 02:02:42;;;;;;;33.03;15.57;;;-2.10;99.90;;;;;;5056009;28;20224;-82
2021/12/22 02:05:08;;;;;;;27.00;14.70;;;-1.10;99.90;;;;;;5037281;28;20212;-81
2021/12/22 02:07:34;;;;;;;27.23;13.70;;;-3.40;99.90;;;;;;5054815;28;20642;-82
2021/12/22 02:10:24;;;;;;;30.10;14.63;;;-3.50;99.90;;;;;;5054528;28;20195;-81
2021/12/22 02:12:53;;;;;;;25.77;14.13;;;-2.90;99.90;;;;;;5054802;28;20606;-82
2021/12/22 02:15:19;;;;;;;24.97;12.00;;;-2.90;99.90;;;;;;5055944;28;20181;-82
2021/12/22 02:17:44;;;;;;;29.70;16.33;;;-3.60;99.90;;;;;;5055940;28;20209;-82
2021/12/22 02:20:11;;;;;;;29.50;15.13;;;-1.80;99.90;;;;;;5037825;28;20196;-82
2021/12/22 02:22:40;;;;;;;24.87;11.23;;;-2.10;99.90;;;;;;5054349;28;20177;-82
2021/12/22 02:25:13;;;;;;;27.23;11.33;;;-1.80;99.90;;;;;;5053874;28;20208;-82
2021/12/22 02:27:53;;;;;;;21.07;11.40;;;-3.60;99.90;;;;;;5054397;28;20687;-82
2021/12/22 02:30:25;;;;;;;21.53;11.30;;;-2.10;99.90;;;;;;5039711;28;20541;-82
2021/12/22 02:35:41;;;;;;;24.97;12.43;;;-3.60;99.90;;;;;;5058021;28;20626;-82
2021/12/22 02:38:13;;;;;;;20.20;9.87;;;-3.40;99.90;;;;;;5057465;28;20197;-82
2021/12/22 02:40:39;;;;;;;21.40;10.77;;;-3.10;99.90;;;;;;5057093;28;20238;-83
2021/12/22 02:43:05;;;;;;;23.40;12.90;;;-1.80;99.90;;;;;;5074997;28;20180;-82
2021/12/22 02:45:36;;;;;;;26.70;14.00;;;-1.30;99.90;;;;;;5040484;28;20185;-82
2021/12/22 02:48:04;;;;;;;21.57;11.50;;;-1.40;99.90;;;;;;5075050;28;20168;-82
2021/12/22 02:50:32;;;;;;;24.50;12.77;;;-2.50;99.90;;;;;;5074676;28;20266;-83
2021/12/22 02:53:06;;;;;;;19.10;11.30;;;-1.70;99.90;;;;;;5074757;28;20169;-82
2021/12/22 02:55:46;;;;;;;21.20;10.53;;;-2.70;99.90;;;;;;5058131;28;20168;-83
2021/12/22 02:58:21;;;;;;;21.43;10.23;;;-3.70;99.90;;;;;;5042215;28;20533;-82
2021/12/22 03:06:30;;;;;;;25.90;12.17;;;-3.90;99.90;;;;;;5059744;28;20198;-82
2021/12/22 03:08:56;;;;;;;33.87;12.90;;;-2.40;99.90;;;;;;5074385;28;20164;-82
2021/12/22 03:11:22;;;;;;;31.77;14.13;;;-4.00;99.90;;;;;;5056590;28;20237;-83
2021/12/22 03:13:48;;;;;;;35.33;14.40;;;-4.00;99.90;;;;;;5056760;28;20207;-83
2021/12/22 03:16:13;;;;;;;32.50;14.30;;;-4.00;99.90;;;;;;5056620;28;20187;-82
2021/12/22 03:18:39;;;;;;;34.90;13.83;;;-1.70;99.90;;;;;;5056130;28;20192;-82
2021/12/22 03:21:21;;;;;;;27.73;13.30;;;-2.40;99.90;;;;;;5039892;28;20194;-82
2021/12/22 03:23:49;;;;;;;28.87;13.33;;;-2.30;99.90;;;;;;5041858;28;20715;-82
2021/12/22 03:26:16;;;;;;;27.67;13.97;;;-3.70;99.90;;;;;;5074415;28;20181;-82
2021/12/22 03:28:44;;;;;;;31.57;13.93;;;-2.50;99.90;;;;;;5040352;28;20184;-82
2021/12/22 03:31:09;;;;;;;27.40;13.50;;;-1.60;99.90;;;;;;5074204;28;20617;-82
2021/12/22 03:33:35;;;;;;;25.47;10.23;;;-4.00;99.90;;;;;;5023140;28;20318;-82
2021/12/22 03:36:01;;;;;;;27.60;10.90;;;-3.30;99.90;;;;;;5056404;28;20262;-82
2021/12/22 03:38:27;;;;;;;30.67;12.37;;;-1.70;99.90;;;;;;5056487;28;20539;-82
2021/12/22 03:40:53;;;;;;;23.47;11.73;;;;;;;;;;5055993;28;20200;-82
2021/12/22 03:43:19;;;;;;;24.00;11.27;;;-4.00;99.90;;;;;;5074461;28;20753;-82
2021/12/22 03:45:44;;;;;;;29.30;12.57;;;-1.90;99.90;;;;;;5056377;28;20272;-82
2021/12/22 03:48:10;;;;;;;24.57;11.07;;;-4.10;99.90;;;;;;5055970;28;20188;-82
2021/12/22 03:50:36;;;;;;;32.17;13.40;;;-1.80;99.90;;;;;;5039609;28;20179;-82
2021/12/22 03:53:02;;;;;;;27.43;11.27;;;-4.10;99.90;;;;;;5074127;28;20566;-83
2021/12/22 03:55:27;;;;;;;29.23;13.90;;;-4.20;99.90;;;;;;5056603;28;20188;-83
2021/12/22 03:57:53;;;;;;;30.33;12.63;;;-4.20;99.90;;;;;;5056058;28;20539;-82
2021/12/22 04:00:19;;;;;;;25.53;10.63;;;-2.00;99.90;;;;;;5039385;28;20279;-83
2021/12/22 04:02:45;;;;;;;25.60;11.37;;;-3.00;99.90;;;;;;5039448;28;20188;-84
2021/12/22 04:05:11;;;;;;;24.30;11.50;;;-2.20;99.90;;;;;;5056104;28;20256;-84
2021/12/22 04:07:36;;;;;;;22.30;11.53;;;-4.10;99.90;;;;;;5073799;28;20237;-84
2021/12/22 04:10:18;;;;;;;24.87;11.93;;;-4.10;99.90;;;;;;5073867;28;20254;-84
2021/12/22 04:12:44;;;;;;;19.60;10.90;;;-4.10;99.90;;;;;;5055883;28;20182;-83
2021/12/22 04:15:10;;;;;;;23.00;11.37;;;-4.10;99.90;;;;;;5055884;28;20187;-83
2021/12/22 04:17:36;;;;;;;14.07;7.83;;;-3.50;99.90;;;;;;5039756;28;20182;-83
2021/12/22 04:20:02;;;;;;;22.27;11.37;;;-4.10;99.90;;;;;;5022660;28;20179;-84
2021/12/22 04:22:28;;;;;;;18.43;10.00;;;-4.10;99.90;;;;;;5039438;28;20200;-84
2021/12/22 04:24:54;;;;;;;23.13;11.97;;;-1.50;99.90;;;;;;5073008;28;20297;-83
2021/12/22 04:27:19;;;;;;;22.80;11.03;;;-4.10;99.90;;;;;;5022209;28;20198;-83
2021/12/22 04:29:45;;;;;;;24.57;11.23;;;-3.90;99.90;;;;;;5059232;28;20183;-84
2021/12/22 04:32:11;;;;;;;19.80;11.20;;;-3.20;99.90;;;;;;5043073;28;20345;-84
2021/12/22 04:34:36;;;;;;;22.23;11.57;;;-4.10;99.90;;;;;;5045476;28;20274;-84
2021/12/22 04:37:02;;;;;;;22.00;11.67;;;-1.90;99.90;;;;;;5063103;28;20217;-84
2021/12/22 04:39:30;;;;;;;24.43;12.70;;;-4.10;99.90;;;;;;5049944;28;20180;-84
2021/12/22 04:41:56;;;;;;;29.07;12.90;;;-1.50;99.90;;;;;;5057326;28;20167;-85
2021/12/22 04:44:21;;;;;;;21.03;11.30;;;-4.20;99.90;;;;;;5080822;28;20196;-84
2021/12/22 04:46:47;;;;;;;25.37;12.43;;;-2.50;99.90;;;;;;5080518;28;20165;-86
2021/12/22 04:49:13;;;;;;;23.17;12.50;;;-4.20;99.90;;;;;;5064150;28;20168;-84
2021/12/22 04:51:48;;;;;;;25.33;12.70;;;-2.90;99.90;;;;;;5080924;28;20167;-91
2021/12/22 04:56:41;;;;;;;26.53;13.10;;;-4.20;99.90;;;;;;5068489;28;20226;-85
2021/12/22 04:59:07;;;;;;;25.43;12.63;;;-4.20;99.90;;;;;;5067643;28;20184;-84
2021/12/22 05:01:33;;;;;;;24.17;11.70;;;-4.30;99.90;;;;;;5078998;28;20162;-84
2021/12/22 05:03:59;;;;;;;26.00;13.00;;;-4.20;99.90;;;;;;5092145;28;20226;-86
2021/12/22 05:06:25;;;;;;;30.70;13.80;;;-4.10;99.90;;;;;;5075612;28;20262;-89
2021/12/22 05:08:51;;;;;;;28.10;11.97;;;-4.10;99.90;;;;;;5113667;28;20174;-90
2021/12/22 05:11:17;;;;;;;25.83;13.77;;;-1.30;99.90;;;;;;5082816;28;20650;-83
2021/12/22 05:13:43;;;;;;;23.57;11.80;;;-1.90;99.90;;;;;;5073448;28;20187;-84
2021/12/22 05:16:16;;;;;;;28.60;13.13;;;-2.00;99.90;;;;;;5057024;28;20630;-81
2021/12/22 05:21:24;;;;;;;24.73;13.80;;;-4.10;99.90;;;;;;5075893;28;20550;-81
2021/12/22 05:23:51;;;;;;;30.70;13.20;;;-1.70;99.90;;;;;;5091775;28;20203;-82
2021/12/22 05:26:17;;;;;;;27.87;13.50;;;-2.30;99.90;;;;;;5068077;28;20233;-82
2021/12/22 05:28:43;;;;;;;25.57;12.57;;;-4.00;99.90;;;;;;5066560;28;20202;-83
2021/12/22 05:31:09;;;;;;;27.37;13.50;;;-1.90;99.90;;;;;;5073862;28;20696;-82
2021/12/22 05:33:35;;;;;;;22.83;11.60;;;-1.30;99.90;;;;;;5073036;28;20773;-80
2021/12/22 05:36:00;;;;;;;27.00;13.83;;;-3.60;99.90;;;;;;5086386;28;20195;-81
2021/12/22 05:38:26;;;;;;;28.17;13.27;;;-1.30;99.90;;;;;;5073525;28;20538;-81
2021/12/22 05:40:51;;;;;;;26.83;11.83;;;-3.80;99.90;;;;;;5074475;28;20265;-82
2021/12/22 05:43:17;;;;;;;24.97;12.80;;;-3.70;99.90;;;;;;5059942;28;20192;-81
2021/12/22 05:45:43;;;;;;;27.07;14.07;;;-1.90;99.90;;;;;;5083014;28;20197;-82
2021/12/22 05:48:09;;;;;;;34.10;13.50;;;-3.80;99.90;;;;;;5074062;28;20311;-81
2021/12/22 05:50:35;;;;;;;32.77;14.10;;;-3.20;99.90;;;;;;5060270;28;20192;-83
2021/12/22 05:53:00;;;;;;;33.47;15.40;;;-3.90;99.90;;;;;;5055723;28;20674;-81
2021/12/22 05:55:26;;;;;;;35.53;14.47;;;-1.20;99.90;;;;;;5094351;28;20194;-82
2021/12/22 05:57:53;;;;;;;28.77;13.47;;;-2.70;99.90;;;;;;5066189;28;20651;-83
2021/12/22 06:00:19;;;;;;;29.97;14.83;;;-1.60;99.90;;;;;;5059194;28;20588;-82
2021/12/22 06:02:45;;;;;;;29.13;12.60;;;-2.40;99.90;;;;;;5067795;28;20177;-82
2021/12/22 06:05:11;;;;;;;29.50;14.27;;;-3.80;99.90;;;;;;5057346;28;20221;-83
2021/12/22 06:07:37;;;;;;;26.40;14.57;;;-1.60;99.90;;;;;;5076951;28;20183;-80
2021/12/22 06:10:05;;;;;;;32.13;14.03;;;-3.80;99.90;;;;;;5076937;28;20578;-82
2021/12/22 06:12:30;;;;;;;30.53;15.27;;;-3.80;99.90;;;;;;5077126;28;20175;-82
2021/12/22 06:14:56;;;;;;;34.43;13.93;;;-3.80;99.90;;;;;;5077551;28;20683;-82
2021/12/22 06:17:22;;;;;;;30.20;15.13;;;-2.20;99.90;;;;;;5060721;28;20192;-82
2021/12/22 06:19:47;;;;;;;36.30;17.47;;;-2.10;99.90;;;;;;5043662;28;20183;-85
2021/12/22 06:22:14;;;;;;;30.33;16.30;;;-1.60;99.90;;;;;;5077470;28;20190;-82
2021/12/22 06:24:40;;;;;;;33.13;16.47;;;-3.40;99.90;;;;;;5060581;28;20233;-82
2021/12/22 06:27:05;;;;;;;27.27;14.83;;;-3.60;99.90;;;;;;5076769;28;20263;-82
2021/12/22 06:29:31;;;;;;;30.10;15.47;;;-3.60;99.90;;;;;;5095172;28;20192;-81
2021/12/22 06:31:57;;;;;;;30.27;15.70;;;-3.60;99.90;;;;;;5076408;28;20188;-81
2021/12/22 06:34:22;;;;;;;30.87;15.10;;;-3.60;99.90;;;;;;5095297;28;20600;-81
2021/12/22 06:36:48;;;;;;;22.77;13.40;;;-2.50;99.90;;;;;;5060264;28;20681;-81
2021/12/22 06:39:15;;;;;;;26.50;13.90;;;-3.70;99.90;;;;;;5060230;28;20188;-83
2021/12/22 06:41:41;;;;;;;27.30;15.07;;;-3.60;99.90;;;;;;5095595;28;20692;-83
2021/12/22 06:44:07;;;;;;;33.00;14.83;;;-2.40;99.90;;;;;;5059726;28;20290;-81
2021/12/22 06:46:32;;;;;;;32.57;14.03;;;-3.20;99.90;;;;;;5051087;28;20194;-83
2021/12/22 06:48:58;;;;;;;31.33;16.33;;;-2.50;99.90;;;;;;5056624;28;20190;-82
2021/12/22 06:51:24;;;;;;;46.10;17.10;;;-3.70;99.90;;;;;;5056530;28;20191;-82
2021/12/22 06:53:50;;;;;;;31.67;15.30;;;-1.70;99.90;;;;;;5039503;28;20246;-81
2021/12/22 06:56:15;;;;;;;28.87;13.27;;;-1.50;99.90;;;;;;5040387;28;20231;-82
2021/12/22 06:58:42;;;;;;;31.90;15.87;;;-3.40;99.90;;;;;;5074761;28;20532;-82
2021/12/22 07:01:07;;;;;;;27.80;15.37;;;-3.70;99.90;;;;;;5074707;28;20191;-85
2021/12/22 07:03:33;;;;;;;30.00;13.70;;;-3.80;99.90;;;;;;5040103;28;20214;-83
2021/12/22 07:06:00;;;;;;;24.50;11.97;;;-1.60;99.90;;;;;;5056252;28;20206;-85
2021/12/22 07:08:25;;;;;;;33.57;15.20;;;-3.80;99.90;;;;;;5074456;28;20231;-82
2021/12/22 07:10:52;;;;;;;33.43;14.90;;;-3.80;99.90;;;;;;5056849;28;20625;-82
2021/12/22 07:13:18;;;;;;;32.50;15.00;;;;;;;;;;5056105;28;20179;-85
2021/12/22 07:15:44;;;;;;;32.47;15.93;;;-3.90;99.90;;;;;;5067215;28;20185;-82
2021/12/22 07:18:11;;;;;;;41.13;16.77;;;-3.90;99.90;;;;;;5092444;28;20185;-81
2021/12/22 07:20:37;;;;;;;33.10;16.07;;;-1.30;99.90;;;;;;5095138;28;20631;-82
2021/12/22 07:23:03;;;;;;;31.80;15.57;;;-1.40;99.90;;;;;;5094706;28;20179;-84
2021/12/22 07:25:29;;;;;;;37.83;16.07;;;;;;;;;;5059681;28;20198;-83
2021/12/22 07:27:55;;;;;;;29.63;14.40;;;-3.70;99.90;;;;;;5091400;28;20171;-85
2021/12/22 07:37:03;;;;;;;38.37;17.53;;;-3.60;99.90;;;;;;5171004;23;20754;-82
2021/12/22 07:39:28;;;;;;;39.60;16.43;;;-3.50;99.90;;;;;;4870878;29;20227;-83
2021/12/22 07:41:55;;;;;;;36.33;15.70;;;;;;;;;;4879073;29;20213;-82
2021/12/22 07:44:20;;;;;;;34.30;15.07;;;-3.50;99.90;;;;;;4878037;29;20224;-84
2021/12/22 07:46:46;;;;;;;29.57;14.30;;;-3.50;99.90;;;;;;4855365;29;20192;-83
2021/12/22 07:49:12;;;;;;;41.73;16.70;;;-3.50;99.90;;;;;;4879605;29;20239;-83
2021/12/22 07:51:37;;;;;;;29.77;15.50;;;-1.30;99.90;;;;;;4878804;29;20607;-83
2021/12/22 07:54:03;;;;;;;33.53;16.03;;;-2.30;99.90;;;;;;4878203;29;20245;-82
2021/12/22 07:56:29;;;;;;;38.20;18.37;;;-3.50;99.90;;;;;;4879154;29;20197;-82
2021/12/22 07:58:55;;;;;;;39.03;18.50;;;-1.50;99.90;;;;;;4878553;29;20189;-82
2021/12/22 08:01:21;;;;;;;40.90;19.63;;;-3.40;99.90;;;;;;4880143;29;20242;-83
2021/12/22 08:03:48;;;;;;;38.37;21.17;;;-2.90;99.90;;;;;;4877892;29;20215;-82
2021/12/22 08:06:14;;;;;;;41.13;16.87;;;-2.20;99.90;;;;;;4880016;29;20204;-82
2021/12/22 08:08:40;;;;;;;35.87;17.53;;;-2.30;99.90;;;;;;4863410;29;20191;-82
2021/12/22 08:11:06;;;;;;;36.97;18.17;;;-1.70;99.90;;;;;;4879621;29;20541;-83
2021/12/22 08:13:32;;;;;;;35.33;16.30;;;-3.30;99.90;;;;;;4879859;29;20205;-83
2021/12/22 08:15:58;;;;;;;23.60;11.40;;;-1.80;99.90;;;;;;4879974;29;20871;-83
2021/12/22 08:18:24;;;;;;;32.23;15.13;;;-1.20;99.90;;;;;;4879360;29;20641;-86
2021/12/22 08:20:50;;;;;;;29.27;16.03;;;-1.40;99.90;;;;;;4878214;29;20184;-83
2021/12/22 08:23:18;;;;;;;22.30;11.37;;;-1.10;99.90;;;;;;4879696;29;20671;-83
2021/12/22 08:25:45;;;;;;;26.67;14.63;;;-3.10;99.90;;;;;;4879780;29;20178;-81
2021/12/22 08:28:10;;;;;;;33.47;17.53;;;-2.60;99.90;;;;;;4878492;29;20181;-83
2021/12/22 08:30:37;;;;;;;39.50;21.87;;;-3.10;99.90;;;;;;4863312;29;20242;-83
2021/12/22 08:33:09;;;;;;;40.93;20.93;;;-3.10;99.90;;;;;;4888496;29;20190;-84
2021/12/22 08:38:50;;;;;;;46.93;20.23;;;-0.20;99.90;;;;;;4875660;29;20236;-82
2021/12/22 08:41:06;;;;;;;48.23;24.27;;;-0.70;99.90;;;;;;4884427;29;20197;-83
2021/12/22 08:43:31;;;;;;;49.97;22.93;;;-3.10;99.90;;;;;;4886754;29;20214;-83
2021/12/22 08:45:58;;;;;;;48.47;23.90;;;-3.20;99.90;;;;;;4878718;29;20187;-83
2021/12/22 08:48:24;;;;;;;45.83;20.50;;;-2.90;99.90;;;;;;4878968;29;20192;-83
2021/12/22 08:50:50;;;;;;;72.93;27.50;;;;;;;;;;4878344;29;20191;-82
2021/12/22 08:53:18;;;;;;;66.17;26.13;;;-3.00;99.90;;;;;;4878897;29;20273;-83
2021/12/22 08:55:43;;;;;;;76.93;28.83;;;-0.30;99.90;;;;;;4878867;29;20205;-83
2021/12/22 08:58:09;;;;;;;80.30;33.20;;;-3.00;99.90;;;;;;4878224;29;20189;-83
2021/12/22 09:00:37;;;;;;;99.13;32.87;;;-2.70;99.90;;;;;;4879635;29;20624;-82
2021/12/22 09:03:02;;;;;;;103.67;44.90;;;-2.90;99.90;;;;;;4863011;29;20224;-83
2021/12/22 09:05:28;;;;;;;95.97;36.97;;;-0.80;99.90;;;;;;4848010;29;20731;-82
2021/12/22 09:07:53;;;;;;;99.07;40.53;;;-2.80;99.90;;;;;;4878279;29;20213;-82
2021/12/22 09:10:19;;;;;;;98.67;39.00;;;-1.30;99.90;;;;;;4847200;29;20184;-84
2021/12/22 09:12:45;;;;;;;93.20;38.67;;;-2.90;99.90;;;;;;4862464;29;20226;-83
2021/12/22 09:15:11;;;;;;;76.57;33.63;;;-3.00;99.90;;;;;;4862780;29;20260;-85
2021/12/22 09:17:36;;;;;;;75.20;31.40;;;-2.40;99.90;;;;;;4866105;29;20626;-83
2021/12/22 09:20:03;;;;;;;82.73;33.90;;;-0.30;99.90;;;;;;4881585;29;20192;-82
2021/12/22 09:22:28;;;;;;;81.77;32.00;;;-2.90;99.90;;;;;;4881244;29;20761;-83
2021/12/22 09:24:54;;;;;;;82.73;34.80;;;;;;;;;;4881225;29;20229;-83
2021/12/22 09:27:20;;;;;;;77.17;35.20;;;;;;;;;;4881461;29;20192;-84
2021/12/22 09:29:46;;;;;;;79.03;34.07;;;-2.70;99.90;;;;;;4865580;29;20244;-84
2021/12/22 09:32:16;;;;;;;82.70;34.20;;;-0.90;99.90;;;;;;4881365;29;20196;-83
2021/12/22 09:34:46;;;;;;;88.73;35.67;;;-2.40;99.90;;;;;;4882918;29;20185;-83
2021/12/22 09:37:12;;;;;;;77.00;36.63;;;-1.00;99.90;;;;;;4881145;29;20268;-83
2021/12/22 09:39:39;;;;;;;62.60;28.17;;;-0.70;99.90;;;;;;4865322;29;20198;-84
2021/12/22 09:42:05;;;;;;;62.67;30.30;;;-2.70;99.90;;;;;;4880511;29;20293;-83
2021/12/22 09:44:37;;;;;;;48.77;22.87;;;-2.70;99.90;;;;;;4880825;29;20218;-83
2021/12/22 09:47:03;;;;;;;49.93;21.33;;;-2.70;99.90;;;;;;4881354;29;20875;-83
2021/12/22 09:55:06;;;;;;;36.47;17.47;;;-1.90;99.90;;;;;;4876774;29;20209;-85
2021/12/22 09:57:33;;;;;;;32.47;17.13;;;-2.70;99.90;;;;;;4881221;29;20196;-84
2021/12/22 09:59:59;;;;;;;34.80;15.93;;;-2.60;99.90;;;;;;4881628;29;20277;-83
2021/12/22 10:02:29;;;;;;;32.80;17.47;;;-2.70;99.90;;;;;;4864906;29;20193;-84
2021/12/22 10:04:57;;;;;;;33.03;16.20;;;-0.80;99.90;;;;;;4882209;29;20208;-84
2021/12/22 10:07:27;;;;;;;32.27;16.47;;;-1.90;99.90;;;;;;4881894;29;20191;-83
2021/12/22 10:09:55;;;;;;;35.83;15.77;;;-2.60;99.90;;;;;;4882407;29;20170;-83
2021/12/22 10:12:23;;;;;;;37.30;18.37;;;-0.90;99.90;;;;;;4865403;29;20200;-83
2021/12/22 10:15:02;;;;;;;38.00;21.00;;;-0.30;99.90;;;;;;4882093;29;20193;-83
2021/12/22 10:17:41;;;;;;;38.77;19.87;;;-2.40;99.90;;;;;;4880580;29;20197;-84
2021/12/22 10:20:14;;;;;;;37.80;19.40;;;-2.30;99.90;;;;;;4881758;29;20632;-83
2021/12/22 10:22:47;;;;;;;38.93;18.73;;;-2.10;99.90;;;;;;4880961;29;20189;-84
2021/12/22 10:25:23;;;;;;;61.23;27.30;;;-1.30;99.90;;;;;;4881454;29;20224;-84
2021/12/22 10:28:04;;;;;;;42.10;18.93;;;-2.20;99.90;;;;;;4879291;29;20273;-84
2021/12/22 10:30:36;;;;;;;65.83;31.10;;;-2.20;99.90;;;;;;4876124;29;20189;-83
2021/12/22 10:33:15;;;;;;;96.47;53.00;;;-2.30;99.90;;;;;;4881477;29;20189;-83
2021/12/22 10:35:47;;;;;;;74.23;36.07;;;-2.30;99.90;;;;;;4881344;29;20236;-83
2021/12/22 10:38:18;;;;;;;50.93;27.67;;;-2.30;99.90;;;;;;4881277;29;20631;-84
2021/12/22 10:40:50;;;;;;;70.97;33.47;;;0.00;99.90;;;;;;4881702;29;20644;-83
2021/12/22 10:43:28;;;;;;;57.63;27.13;;;-2.20;99.90;;;;;;4885240;29;20181;-83
2021/12/22 10:45:57;;;;;;;50.07;23.20;;;-1.70;99.90;;;;;;4881402;29;20650;-83
2021/12/22 10:51:27;;;;;;;53.43;24.67;;;-2.10;99.90;;;;;;4881274;29;20196;-82
2021/12/22 10:53:53;;;;;;;52.63;23.47;;;-2.00;99.90;;;;;;4881317;29;20745;-82
2021/12/22 10:56:37;;;;;;;61.47;28.90;;;-2.00;99.90;;;;;;4880882;29;20276;-83
2021/12/22 10:59:03;;;;;;;52.47;24.83;;;-1.80;99.90;;;;;;4880914;29;20182;-83
2021/12/22 11:01:30;;;;;;;50.20;23.27;;;-1.90;99.90;;;;;;4880976;29;20580;-82
2021/12/22 11:04:03;;;;;;;48.37;22.90;;;-1.30;99.90;;;;;;4879845;29;20227;-82
2021/12/22 11:06:30;;;;;;;52.40;25.93;;;0.50;99.90;;;;;;4881174;29;20192;-83
2021/12/22 11:09:15;;;;;;;54.93;24.67;;;-1.90;99.90;;;;;;4880920;29;20189;-83
2021/12/22 11:11:48;;;;;;;81.40;37.00;;;-1.10;99.90;;;;;;4879561;29;20186;-83
2021/12/22 11:14:25;;;;;;;50.47;26.17;;;-1.90;99.90;;;;;;4881028;29;20279;-83
2021/12/22 11:17:02;;;;;;;59.87;25.60;;;-1.70;99.90;;;;;;4879767;29;20693;-82
2021/12/22 11:20:03;;;;;;;51.27;22.60;;;-1.60;99.90;;;;;;4863069;29;20193;-83
2021/12/22 11:22:47;;;;;;;47.83;22.07;;;-1.60;99.90;;;;;;4879250;29;20270;-82
2021/12/22 11:25:12;;;;;;;57.90;29.00;;;0.30;99.90;;;;;;4879126;29;20569;-84
2021/12/22 11:27:39;;;;;;;55.20;26.33;;;-1.20;99.90;;;;;;4879094;29;20230;-83
2021/12/22 11:30:06;;;;;;;56.93;27.60;;;-1.30;99.90;;;;;;4878794;29;20185;-85
2021/12/22 11:32:33;;;;;;;46.43;23.93;;;-1.50;99.90;;;;;;4878587;29;20182;-84
2021/12/22 11:35:02;;;;;;;48.17;22.47;;;-0.80;99.90;;;;;;4848273;29;20675;-84
2021/12/22 11:37:28;;;;;;;45.17;22.13;;;-0.90;99.90;;;;;;4878427;29;20634;-84
2021/12/22 11:39:54;;;;;;;46.30;24.07;;;0.70;99.90;;;;;;4863284;29;20182;-84
2021/12/22 11:42:24;;;;;;;38.67;20.67;;;;;;;;;;4879884;29;20186;-87
2021/12/22 11:44:57;;;;;;;49.53;26.50;;;-1.80;99.90;;;;;;4878523;29;20711;-83
2021/12/22 11:47:23;;;;;;;33.37;16.53;;;-0.60;99.90;;;;;;4879797;29;20185;-83
2021/12/22 11:50:01;;;;;;;33.83;17.57;;;-1.90;99.90;;;;;;4878217;29;20561;-83
2021/12/22 11:52:29;;;;;;;39.87;20.50;;;0.10;99.90;;;;;;4879280;29;20174;-83
2021/12/22 11:55:09;;;;;;;40.57;21.17;;;0.30;99.90;;;;;;4878446;29;20188;-83
2021/12/22 11:57:35;;;;;;;35.53;18.53;;;0.20;99.90;;;;;;4868280;29;20634;-86
2021/12/22 12:00:20;;;;;;;38.07;19.63;;;-0.10;99.90;;;;;;4878212;29;20196;-85
2021/12/22 12:02:46;;;;;;;41.90;20.17;;;-1.80;99.90;;;;;;4879489;29;20182;-84
2021/12/22 12:05:32;;;;;;;31.10;17.07;;;-0.20;99.90;;;;;;4879837;29;20280;-84
2021/12/22 12:08:14;;;;;;;34.77;16.80;;;-1.90;99.90;;;;;;4867632;29;20203;-83
2021/12/22 12:10:49;;;;;;;34.30;16.67;;;-1.70;99.90;;;;;;4880234;29;20226;-85
2021/12/22 12:13:24;;;;;;;31.77;17.33;;;-1.70;99.90;;;;;;4880043;29;20225;-86
2021/12/22 12:21:55;;;;;;;25.37;13.87;;;0.20;99.90;;;;;;4877491;29;20201;-84
2021/12/22 12:24:30;;;;;;;27.87;14.00;;;-1.30;99.90;;;;;;4877047;29;20204;-85
2021/12/22 12:26:56;;;;;;;25.47;14.27;;;;;;;;;;4878386;29;20196;-84
2021/12/22 12:29:50;;;;;;;20.70;12.23;;;-1.40;99.90;;;;;;4880249;29;20241;-84
2021/12/22 12:32:43;;;;;;;24.93;13.13;;;-0.40;99.90;;;;;;4878293;29;20197;-85
2021/12/22 12:35:18;;;;;;;26.07;13.30;;;-0.30;99.90;;;;;;4878301;29;20349;-84
2021/12/22 12:38:22;;;;;;;23.13;12.70;;;1.30;99.90;;;;;;4880202;29;20188;-84
2021/12/22 12:43:46;;;;;;;23.87;13.67;;;1.40;99.90;;;;;;4861373;29;20273;-84
2021/12/22 12:46:24;;;;;;;26.50;14.00;;;1.50;99.90;;;;;;4877662;29;20192;-86
2021/12/22 12:48:54;;;;;;;26.33;13.80;;;1.20;99.90;;;;;;4877586;29;20184;-85
2021/12/22 12:51:41;;;;;;;24.47;11.93;;;-1.30;99.90;;;;;;4881029;29;20650;-85
2021/12/22 12:54:25;;;;;;;24.13;11.47;;;-1.30;99.90;;;;;;4883436;29;20183;-84
2021/12/22 12:57:00;;;;;;;26.77;13.93;;;-0.10;99.90;;;;;;4878197;29;20177;-82
2021/12/22 12:59:38;;;;;;;38.80;17.20;;;-0.40;99.90;;;;;;4875040;29;20216;-83
2021/12/22 13:02:05;;;;;;;28.20;14.53;;;-1.70;99.90;;;;;;4881835;29;20183;-83
2021/12/22 13:04:38;;;;;;;28.17;13.97;;;0.10;99.90;;;;;;4881250;29;20206;-84
2021/12/22 13:07:19;;;;;;;30.60;16.60;;;-0.80;99.90;;;;;;4864507;29;20172;-83
2021/12/22 13:09:49;;;;;;;35.60;16.67;;;-1.90;99.90;;;;;;4877912;29;20174;-84
2021/12/22 13:17:43;;;;;;;30.70;16.30;;;-1.80;99.90;;;;;;4885462;29;20193;-84
2021/12/22 13:20:15;;;;;;;33.20;16.77;;;0.60;99.90;;;;;;4885969;29;20553;-83
2021/12/22 13:22:45;;;;;;;36.53;18.60;;;-1.90;99.90;;;;;;4893692;29;20199;-83
2021/12/22 13:25:17;;;;;;;39.17;19.53;;;-1.40;99.90;;;;;;4905844;29;20271;-84
2021/12/22 13:27:49;;;;;;;38.73;17.77;;;-2.10;99.90;;;;;;4904981;29;20201;-83